sensor_id;sensor_type;location;lat;lon;timestamp;P1;durP1;ratioP1;P2;durP2;ratioP2
22715;SDS011;11525;51.152;4.456;2024-03-17T00:00:42;15.88;;;8.90;;
22715;SDS011;11525;51.152;4.456;2024-03-17T00:03:08;11.82;;;8.27;;
22715;SDS011;11525;51.152;4.456;2024-03-17T00:05:37;10.38;;;8.43;;
22715;SDS011;11525;51.152;4.456;2024-03-17T00:08:03;11.85;;;8.65;;
22715;SDS011;11525;51.152;4.456;2024-03-17T00:10:33;10.85;;;8.20;;
22715;SDS011;11525;51.152;4.456;2024-03-17T00:12:59;9.63;;;7.70;;
22715;SDS011;11525;51.152;4.456;2024-03-17T00:15:26;12.30;;;8.65;;
22715;SDS011;11525;51.152;4.456;2024-03-17T00:17:51;8.75;;;7.82;;
22715;SDS011;11525;51.152;4.456;2024-03-17T00:20:17;9.00;;;7.65;;
22715;SDS011;11525;51.152;4.456;2024-03-17T00:22:47;11.60;;;7.90;;
22715;SDS011;11525;51.152;4.456;2024-03-17T00:25:13;10.82;;;8.15;;
22715;SDS011;11525;51.152;4.456;2024-03-17T00:27:38;8.45;;;7.53;;
22715;SDS011;11525;51.152;4.456;2024-03-17T00:30:08;8.15;;;7.30;;
22715;SDS011;11525;51.152;4.456;2024-03-17T00:32:40;12.85;;;8.45;;
22715;SDS011;11525;51.152;4.456;2024-03-17T00:35:07;12.98;;;8.45;;
22715;SDS011;11525;51.152;4.456;2024-03-17T00:37:34;12.52;;;8.55;;
22715;SDS011;11525;51.152;4.456;2024-03-17T00:40:02;9.25;;;8.05;;
22715;SDS011;11525;51.152;4.456;2024-03-17T00:42:29;11.88;;;7.90;;
22715;SDS011;11525;51.152;4.456;2024-03-17T00:44:58;13.07;;;8.35;;
22715;SDS011;11525;51.152;4.456;2024-03-17T00:47:25;10.05;;;8.25;;
22715;SDS011;11525;51.152;4.456;2024-03-17T00:49:50;10.57;;;7.90;;
22715;SDS011;11525;51.152;4.456;2024-03-17T00:52:16;11.77;;;8.30;;
22715;SDS011;11525;51.152;4.456;2024-03-17T00:54:42;12.93;;;8.23;;
22715;SDS011;11525;51.152;4.456;2024-03-17T00:57:08;8.75;;;7.20;;
22715;SDS011;11525;51.152;4.456;2024-03-17T00:59:34;11.10;;;8.27;;
22715;SDS011;11525;51.152;4.456;2024-03-17T01:02:00;10.38;;;8.25;;
22715;SDS011;11525;51.152;4.456;2024-03-17T01:04:27;12.10;;;7.97;;
22715;SDS011;11525;51.152;4.456;2024-03-17T01:06:53;12.90;;;8.82;;
22715;SDS011;11525;51.152;4.456;2024-03-17T01:09:18;11.60;;;8.50;;
22715;SDS011;11525;51.152;4.456;2024-03-17T01:11:45;9.63;;;8.07;;
22715;SDS011;11525;51.152;4.456;2024-03-17T01:14:10;13.52;;;8.38;;
22715;SDS011;11525;51.152;4.456;2024-03-17T01:16:36;14.45;;;8.65;;
22715;SDS011;11525;51.152;4.456;2024-03-17T01:19:01;10.43;;;8.48;;
22715;SDS011;11525;51.152;4.456;2024-03-17T01:21:27;9.35;;;7.57;;
22715;SDS011;11525;51.152;4.456;2024-03-17T01:23:52;8.85;;;7.93;;
22715;SDS011;11525;51.152;4.456;2024-03-17T01:26:18;11.32;;;8.07;;
22715;SDS011;11525;51.152;4.456;2024-03-17T01:28:44;9.88;;;8.40;;
22715;SDS011;11525;51.152;4.456;2024-03-17T01:31:09;10.07;;;8.23;;
22715;SDS011;11525;51.152;4.456;2024-03-17T01:33:35;10.15;;;8.35;;
22715;SDS011;11525;51.152;4.456;2024-03-17T01:36:00;11.30;;;7.97;;
22715;SDS011;11525;51.152;4.456;2024-03-17T01:38:26;9.82;;;8.65;;
22715;SDS011;11525;51.152;4.456;2024-03-17T01:40:52;13.15;;;8.52;;
22715;SDS011;11525;51.152;4.456;2024-03-17T01:43:17;10.88;;;8.35;;
22715;SDS011;11525;51.152;4.456;2024-03-17T01:45:43;10.55;;;8.95;;
22715;SDS011;11525;51.152;4.456;2024-03-17T01:48:12;12.30;;;8.48;;
22715;SDS011;11525;51.152;4.456;2024-03-17T01:50:44;10.77;;;8.90;;
22715;SDS011;11525;51.152;4.456;2024-03-17T01:53:13;10.48;;;9.43;;
22715;SDS011;11525;51.152;4.456;2024-03-17T01:55:40;10.45;;;9.13;;
22715;SDS011;11525;51.152;4.456;2024-03-17T01:58:08;9.30;;;8.40;;
22715;SDS011;11525;51.152;4.456;2024-03-17T02:00:35;10.65;;;9.02;;
22715;SDS011;11525;51.152;4.456;2024-03-17T02:03:04;9.65;;;8.55;;
22715;SDS011;11525;51.152;4.456;2024-03-17T02:05:38;9.15;;;8.02;;
22715;SDS011;11525;51.152;4.456;2024-03-17T02:08:05;11.15;;;9.23;;
22715;SDS011;11525;51.152;4.456;2024-03-17T02:10:34;10.23;;;9.02;;
22715;SDS011;11525;51.152;4.456;2024-03-17T02:13:00;13.15;;;9.05;;
22715;SDS011;11525;51.152;4.456;2024-03-17T02:15:28;16.35;;;9.38;;
22715;SDS011;11525;51.152;4.456;2024-03-17T02:17:54;12.27;;;9.60;;
22715;SDS011;11525;51.152;4.456;2024-03-17T02:20:20;10.25;;;9.05;;
22715;SDS011;11525;51.152;4.456;2024-03-17T02:22:49;13.40;;;9.90;;
22715;SDS011;11525;51.152;4.456;2024-03-17T02:25:15;10.27;;;9.23;;
22715;SDS011;11525;51.152;4.456;2024-03-17T02:27:41;11.10;;;9.40;;
22715;SDS011;11525;51.152;4.456;2024-03-17T02:30:06;10.02;;;8.98;;
22715;SDS011;11525;51.152;4.456;2024-03-17T02:32:35;10.32;;;8.95;;
22715;SDS011;11525;51.152;4.456;2024-03-17T02:35:01;10.38;;;9.30;;
22715;SDS011;11525;51.152;4.456;2024-03-17T02:37:27;9.88;;;8.73;;
22715;SDS011;11525;51.152;4.456;2024-03-17T02:39:53;10.18;;;8.88;;
22715;SDS011;11525;51.152;4.456;2024-03-17T02:42:18;11.60;;;9.00;;
22715;SDS011;11525;51.152;4.456;2024-03-17T02:44:44;12.50;;;8.93;;
22715;SDS011;11525;51.152;4.456;2024-03-17T02:47:10;11.93;;;9.27;;
22715;SDS011;11525;51.152;4.456;2024-03-17T02:49:39;11.48;;;9.10;;
22715;SDS011;11525;51.152;4.456;2024-03-17T02:52:08;10.45;;;9.00;;
22715;SDS011;11525;51.152;4.456;2024-03-17T02:54:35;9.45;;;8.40;;
22715;SDS011;11525;51.152;4.456;2024-03-17T02:57:02;12.68;;;10.27;;
22715;SDS011;11525;51.152;4.456;2024-03-17T02:59:28;12.70;;;10.25;;
22715;SDS011;11525;51.152;4.456;2024-03-17T03:01:54;11.35;;;10.10;;
22715;SDS011;11525;51.152;4.456;2024-03-17T03:04:20;14.75;;;10.60;;
22715;SDS011;11525;51.152;4.456;2024-03-17T03:06:46;12.23;;;10.35;;
22715;SDS011;11525;51.152;4.456;2024-03-17T03:09:11;12.95;;;10.35;;
22715;SDS011;11525;51.152;4.456;2024-03-17T03:11:45;11.00;;;9.57;;
22715;SDS011;11525;51.152;4.456;2024-03-17T03:14:12;13.00;;;10.57;;
22715;SDS011;11525;51.152;4.456;2024-03-17T03:16:38;13.07;;;11.05;;
22715;SDS011;11525;51.152;4.456;2024-03-17T03:19:03;13.15;;;10.48;;
22715;SDS011;11525;51.152;4.456;2024-03-17T03:21:30;15.88;;;11.73;;
22715;SDS011;11525;51.152;4.456;2024-03-17T03:23:59;14.82;;;12.00;;
22715;SDS011;11525;51.152;4.456;2024-03-17T03:26:24;13.80;;;11.85;;
22715;SDS011;11525;51.152;4.456;2024-03-17T03:28:50;15.48;;;12.23;;
22715;SDS011;11525;51.152;4.456;2024-03-17T03:31:15;11.93;;;10.63;;
22715;SDS011;11525;51.152;4.456;2024-03-17T03:33:42;13.93;;;11.60;;
22715;SDS011;11525;51.152;4.456;2024-03-17T03:36:12;18.33;;;12.48;;
22715;SDS011;11525;51.152;4.456;2024-03-17T03:38:39;15.70;;;12.65;;
22715;SDS011;11525;51.152;4.456;2024-03-17T03:43:34;16.73;;;13.45;;
22715;SDS011;11525;51.152;4.456;2024-03-17T03:46:01;16.40;;;12.60;;
22715;SDS011;11525;51.152;4.456;2024-03-17T03:48:27;19.52;;;13.55;;
22715;SDS011;11525;51.152;4.456;2024-03-17T03:50:52;19.17;;;13.80;;
22715;SDS011;11525;51.152;4.456;2024-03-17T03:53:19;17.20;;;13.98;;
22715;SDS011;11525;51.152;4.456;2024-03-17T03:55:45;18.20;;;13.63;;
22715;SDS011;11525;51.152;4.456;2024-03-17T03:58:11;17.67;;;14.43;;
22715;SDS011;11525;51.152;4.456;2024-03-17T04:00:37;19.33;;;15.20;;
22715;SDS011;11525;51.152;4.456;2024-03-17T04:03:06;16.83;;;14.00;;
22715;SDS011;11525;51.152;4.456;2024-03-17T04:05:32;22.02;;;15.48;;
22715;SDS011;11525;51.152;4.456;2024-03-17T04:07:59;18.77;;;14.48;;
22715;SDS011;11525;51.152;4.456;2024-03-17T04:10:25;20.83;;;15.13;;
22715;SDS011;11525;51.152;4.456;2024-03-17T04:12:51;18.17;;;14.68;;
22715;SDS011;11525;51.152;4.456;2024-03-17T04:15:17;21.17;;;15.68;;
22715;SDS011;11525;51.152;4.456;2024-03-17T04:17:43;21.33;;;14.80;;
22715;SDS011;11525;51.152;4.456;2024-03-17T04:20:09;19.45;;;16.17;;
22715;SDS011;11525;51.152;4.456;2024-03-17T04:22:38;18.88;;;15.52;;
22715;SDS011;11525;51.152;4.456;2024-03-17T04:25:04;17.30;;;14.65;;
22715;SDS011;11525;51.152;4.456;2024-03-17T04:27:30;18.85;;;14.60;;
22715;SDS011;11525;51.152;4.456;2024-03-17T04:29:58;18.35;;;15.75;;
22715;SDS011;11525;51.152;4.456;2024-03-17T04:32:24;18.30;;;16.17;;
22715;SDS011;11525;51.152;4.456;2024-03-17T04:34:54;20.33;;;16.10;;
22715;SDS011;11525;51.152;4.456;2024-03-17T04:37:19;20.27;;;15.88;;
22715;SDS011;11525;51.152;4.456;2024-03-17T04:39:46;20.80;;;15.90;;
22715;SDS011;11525;51.152;4.456;2024-03-17T04:42:12;20.05;;;16.25;;
22715;SDS011;11525;51.152;4.456;2024-03-17T04:44:39;22.58;;;15.93;;
22715;SDS011;11525;51.152;4.456;2024-03-17T04:47:05;18.45;;;15.55;;
22715;SDS011;11525;51.152;4.456;2024-03-17T04:49:32;18.10;;;15.32;;
22715;SDS011;11525;51.152;4.456;2024-03-17T04:52:00;17.27;;;15.48;;
22715;SDS011;11525;51.152;4.456;2024-03-17T04:54:25;19.77;;;16.10;;
22715;SDS011;11525;51.152;4.456;2024-03-17T04:56:51;19.73;;;15.38;;
22715;SDS011;11525;51.152;4.456;2024-03-17T04:59:17;21.48;;;15.75;;
22715;SDS011;11525;51.152;4.456;2024-03-17T05:01:42;20.33;;;15.77;;
22715;SDS011;11525;51.152;4.456;2024-03-17T05:04:08;17.95;;;15.07;;
22715;SDS011;11525;51.152;4.456;2024-03-17T05:06:33;20.92;;;15.43;;
22715;SDS011;11525;51.152;4.456;2024-03-17T05:08:59;16.63;;;14.27;;
22715;SDS011;11525;51.152;4.456;2024-03-17T05:11:25;17.55;;;14.10;;
22715;SDS011;11525;51.152;4.456;2024-03-17T05:13:50;19.13;;;14.30;;
22715;SDS011;11525;51.152;4.456;2024-03-17T05:16:16;19.90;;;13.98;;
22715;SDS011;11525;51.152;4.456;2024-03-17T05:18:42;19.13;;;15.10;;
22715;SDS011;11525;51.152;4.456;2024-03-17T05:21:08;17.77;;;14.63;;
22715;SDS011;11525;51.152;4.456;2024-03-17T05:23:34;16.40;;;13.25;;
22715;SDS011;11525;51.152;4.456;2024-03-17T05:26:04;18.15;;;12.60;;
22715;SDS011;11525;51.152;4.456;2024-03-17T05:28:30;16.70;;;13.68;;
22715;SDS011;11525;51.152;4.456;2024-03-17T05:30:56;16.40;;;13.52;;
22715;SDS011;11525;51.152;4.456;2024-03-17T05:33:22;18.17;;;13.30;;
22715;SDS011;11525;51.152;4.456;2024-03-17T05:35:48;15.75;;;14.15;;
22715;SDS011;11525;51.152;4.456;2024-03-17T05:38:25;15.27;;;13.38;;
22715;SDS011;11525;51.152;4.456;2024-03-17T05:40:52;17.23;;;14.00;;
22715;SDS011;11525;51.152;4.456;2024-03-17T05:43:21;15.98;;;13.85;;
22715;SDS011;11525;51.152;4.456;2024-03-17T05:45:49;16.98;;;14.45;;
22715;SDS011;11525;51.152;4.456;2024-03-17T05:48:16;20.08;;;14.30;;
22715;SDS011;11525;51.152;4.456;2024-03-17T05:50:42;16.95;;;14.43;;
22715;SDS011;11525;51.152;4.456;2024-03-17T05:53:07;19.48;;;15.18;;
22715;SDS011;11525;51.152;4.456;2024-03-17T05:55:36;16.95;;;13.63;;
22715;SDS011;11525;51.152;4.456;2024-03-17T05:58:02;18.60;;;14.30;;
22715;SDS011;11525;51.152;4.456;2024-03-17T06:00:29;16.08;;;13.90;;
22715;SDS011;11525;51.152;4.456;2024-03-17T06:02:55;15.25;;;13.45;;
22715;SDS011;11525;51.152;4.456;2024-03-17T06:05:22;14.30;;;12.88;;
22715;SDS011;11525;51.152;4.456;2024-03-17T06:07:47;17.05;;;14.27;;
22715;SDS011;11525;51.152;4.456;2024-03-17T06:10:13;15.63;;;13.55;;
22715;SDS011;11525;51.152;4.456;2024-03-17T06:12:39;16.23;;;12.98;;
22715;SDS011;11525;51.152;4.456;2024-03-17T06:15:05;18.35;;;13.82;;
22715;SDS011;11525;51.152;4.456;2024-03-17T06:17:31;15.95;;;13.57;;
22715;SDS011;11525;51.152;4.456;2024-03-17T06:19:57;14.63;;;13.13;;
22715;SDS011;11525;51.152;4.456;2024-03-17T06:22:23;18.48;;;13.75;;
22715;SDS011;11525;51.152;4.456;2024-03-17T06:24:49;17.20;;;13.13;;
22715;SDS011;11525;51.152;4.456;2024-03-17T06:27:15;14.63;;;12.73;;
22715;SDS011;11525;51.152;4.456;2024-03-17T06:29:41;17.35;;;12.55;;
22715;SDS011;11525;51.152;4.456;2024-03-17T06:32:07;14.40;;;12.75;;
22715;SDS011;11525;51.152;4.456;2024-03-17T06:34:33;14.90;;;12.95;;
22715;SDS011;11525;51.152;4.456;2024-03-17T06:36:59;15.88;;;12.25;;
22715;SDS011;11525;51.152;4.456;2024-03-17T06:39:25;13.95;;;11.80;;
22715;SDS011;11525;51.152;4.456;2024-03-17T06:41:51;15.90;;;12.23;;
22715;SDS011;11525;51.152;4.456;2024-03-17T06:44:17;13.30;;;11.90;;
22715;SDS011;11525;51.152;4.456;2024-03-17T06:46:44;16.95;;;12.73;;
22715;SDS011;11525;51.152;4.456;2024-03-17T06:49:12;14.18;;;11.43;;
22715;SDS011;11525;51.152;4.456;2024-03-17T06:51:37;15.10;;;12.07;;
22715;SDS011;11525;51.152;4.456;2024-03-17T06:54:03;14.50;;;11.88;;
22715;SDS011;11525;51.152;4.456;2024-03-17T06:56:29;13.98;;;11.85;;
22715;SDS011;11525;51.152;4.456;2024-03-17T06:58:55;13.23;;;11.90;;
22715;SDS011;11525;51.152;4.456;2024-03-17T07:01:20;14.25;;;12.55;;
22715;SDS011;11525;51.152;4.456;2024-03-17T07:03:46;14.82;;;11.85;;
22715;SDS011;11525;51.152;4.456;2024-03-17T07:06:11;16.13;;;11.65;;
22715;SDS011;11525;51.152;4.456;2024-03-17T07:08:37;14.45;;;10.93;;
22715;SDS011;11525;51.152;4.456;2024-03-17T07:11:05;16.77;;;11.95;;
22715;SDS011;11525;51.152;4.456;2024-03-17T07:13:38;12.73;;;10.75;;
22715;SDS011;11525;51.152;4.456;2024-03-17T07:16:04;13.85;;;12.00;;
22715;SDS011;11525;51.152;4.456;2024-03-17T07:18:31;14.35;;;12.40;;
22715;SDS011;11525;51.152;4.456;2024-03-17T07:21:03;13.77;;;11.52;;
22715;SDS011;11525;51.152;4.456;2024-03-17T07:23:30;12.25;;;11.05;;
22715;SDS011;11525;51.152;4.456;2024-03-17T07:26:00;15.82;;;11.63;;
22715;SDS011;11525;51.152;4.456;2024-03-17T07:28:26;15.60;;;11.48;;
22715;SDS011;11525;51.152;4.456;2024-03-17T07:30:53;12.70;;;10.70;;
22715;SDS011;11525;51.152;4.456;2024-03-17T07:33:22;14.90;;;11.23;;
22715;SDS011;11525;51.152;4.456;2024-03-17T07:35:55;12.05;;;10.40;;
22715;SDS011;11525;51.152;4.456;2024-03-17T07:38:22;13.00;;;11.38;;
22715;SDS011;11525;51.152;4.456;2024-03-17T07:40:58;16.23;;;11.10;;
22715;SDS011;11525;51.152;4.456;2024-03-17T07:43:30;15.73;;;11.20;;
22715;SDS011;11525;51.152;4.456;2024-03-17T07:48:38;11.55;;;9.25;;
22715;SDS011;11525;51.152;4.456;2024-03-17T07:51:08;12.75;;;9.82;;
22715;SDS011;11525;51.152;4.456;2024-03-17T07:53:35;15.30;;;10.52;;
22715;SDS011;11525;51.152;4.456;2024-03-17T07:56:03;11.88;;;9.70;;
22715;SDS011;11525;51.152;4.456;2024-03-17T07:58:37;15.52;;;10.30;;
22715;SDS011;11525;51.152;4.456;2024-03-17T08:01:08;12.38;;;9.90;;
22715;SDS011;11525;51.152;4.456;2024-03-17T08:03:45;14.73;;;10.77;;
22715;SDS011;11525;51.152;4.456;2024-03-17T08:06:11;11.43;;;9.63;;
22715;SDS011;11525;51.152;4.456;2024-03-17T08:08:37;13.27;;;9.95;;
22715;SDS011;11525;51.152;4.456;2024-03-17T08:11:03;14.90;;;8.90;;
22715;SDS011;11525;51.152;4.456;2024-03-17T08:13:31;10.75;;;9.10;;
22715;SDS011;11525;51.152;4.456;2024-03-17T08:16:02;12.80;;;9.65;;
22715;SDS011;11525;51.152;4.456;2024-03-17T08:18:30;11.77;;;9.25;;
22715;SDS011;11525;51.152;4.456;2024-03-17T08:20:57;15.13;;;8.60;;
22715;SDS011;11525;51.152;4.456;2024-03-17T08:23:24;16.42;;;9.38;;
22715;SDS011;11525;51.152;4.456;2024-03-17T08:25:54;12.63;;;8.77;;
22715;SDS011;11525;51.152;4.456;2024-03-17T08:28:21;14.10;;;8.43;;
22715;SDS011;11525;51.152;4.456;2024-03-17T08:30:53;10.82;;;8.00;;
22715;SDS011;11525;51.152;4.456;2024-03-17T08:33:20;12.00;;;8.70;;
22715;SDS011;11525;51.152;4.456;2024-03-17T08:38:27;12.77;;;7.60;;
22715;SDS011;11525;51.152;4.456;2024-03-17T08:40:54;8.43;;;7.25;;
22715;SDS011;11525;51.152;4.456;2024-03-17T08:43:21;10.20;;;7.35;;
22715;SDS011;11525;51.152;4.456;2024-03-17T08:48:29;8.82;;;6.82;;
22715;SDS011;11525;51.152;4.456;2024-03-17T08:50:59;10.23;;;7.18;;
22715;SDS011;11525;51.152;4.456;2024-03-17T08:53:26;9.65;;;6.70;;
22715;SDS011;11525;51.152;4.456;2024-03-17T08:55:52;14.70;;;6.30;;
22715;SDS011;11525;51.152;4.456;2024-03-17T08:58:19;11.57;;;7.18;;
22715;SDS011;11525;51.152;4.456;2024-03-17T09:00:45;11.00;;;7.25;;
22715;SDS011;11525;51.152;4.456;2024-03-17T09:03:11;9.77;;;7.18;;
22715;SDS011;11525;51.152;4.456;2024-03-17T09:05:37;8.13;;;6.82;;
22715;SDS011;11525;51.152;4.456;2024-03-17T09:08:05;10.55;;;7.28;;
22715;SDS011;11525;51.152;4.456;2024-03-17T09:10:38;9.18;;;6.70;;
22715;SDS011;11525;51.152;4.456;2024-03-17T09:13:10;10.55;;;6.43;;
22715;SDS011;11525;51.152;4.456;2024-03-17T09:15:40;9.57;;;6.70;;
22715;SDS011;11525;51.152;4.456;2024-03-17T09:18:06;10.80;;;6.65;;
22715;SDS011;11525;51.152;4.456;2024-03-17T09:20:32;9.57;;;6.97;;
22715;SDS011;11525;51.152;4.456;2024-03-17T09:22:57;12.25;;;6.05;;
22715;SDS011;11525;51.152;4.456;2024-03-17T09:25:23;11.40;;;6.32;;
22715;SDS011;11525;51.152;4.456;2024-03-17T09:27:49;9.93;;;6.30;;
22715;SDS011;11525;51.152;4.456;2024-03-17T09:30:14;10.07;;;6.05;;
22715;SDS011;11525;51.152;4.456;2024-03-17T09:32:40;11.02;;;6.30;;
22715;SDS011;11525;51.152;4.456;2024-03-17T09:35:06;12.98;;;6.05;;
22715;SDS011;11525;51.152;4.456;2024-03-17T09:37:32;10.98;;;5.38;;
22715;SDS011;11525;51.152;4.456;2024-03-17T09:39:58;7.78;;;5.40;;
22715;SDS011;11525;51.152;4.456;2024-03-17T09:42:27;8.43;;;5.15;;
22715;SDS011;11525;51.152;4.456;2024-03-17T09:44:53;8.27;;;4.82;;
22715;SDS011;11525;51.152;4.456;2024-03-17T09:47:22;6.80;;;5.05;;
22715;SDS011;11525;51.152;4.456;2024-03-17T09:49:49;8.82;;;4.72;;
22715;SDS011;11525;51.152;4.456;2024-03-17T09:52:20;8.85;;;5.03;;
22715;SDS011;11525;51.152;4.456;2024-03-17T09:57:22;9.98;;;4.38;;
22715;SDS011;11525;51.152;4.456;2024-03-17T09:59:52;9.63;;;5.00;;
22715;SDS011;11525;51.152;4.456;2024-03-17T10:02:19;6.20;;;4.05;;
22715;SDS011;11525;51.152;4.456;2024-03-17T10:04:45;6.40;;;4.28;;
22715;SDS011;11525;51.152;4.456;2024-03-17T10:07:11;6.80;;;3.95;;
22715;SDS011;11525;51.152;4.456;2024-03-17T10:09:36;7.90;;;4.00;;
22715;SDS011;11525;51.152;4.456;2024-03-17T10:12:04;9.00;;;3.67;;
22715;SDS011;11525;51.152;4.456;2024-03-17T10:14:30;6.22;;;3.55;;
22715;SDS011;11525;51.152;4.456;2024-03-17T10:16:56;7.47;;;3.83;;
22715;SDS011;11525;51.152;4.456;2024-03-17T10:21:48;9.00;;;3.95;;
22715;SDS011;11525;51.152;4.456;2024-03-17T10:24:21;11.35;;;4.35;;
22715;SDS011;11525;51.152;4.456;2024-03-17T10:26:49;10.43;;;4.10;;
22715;SDS011;11525;51.152;4.456;2024-03-17T10:32:15;7.28;;;3.90;;
22715;SDS011;11525;51.152;4.456;2024-03-17T10:34:44;11.60;;;3.95;;
22715;SDS011;11525;51.152;4.456;2024-03-17T10:37:11;8.27;;;4.53;;
22715;SDS011;11525;51.152;4.456;2024-03-17T10:39:40;7.82;;;4.35;;
22715;SDS011;11525;51.152;4.456;2024-03-17T10:42:07;8.52;;;3.53;;
22715;SDS011;11525;51.152;4.456;2024-03-17T10:44:34;8.73;;;4.57;;
22715;SDS011;11525;51.152;4.456;2024-03-17T10:47:01;7.70;;;4.20;;
22715;SDS011;11525;51.152;4.456;2024-03-17T10:49:34;7.68;;;4.00;;
22715;SDS011;11525;51.152;4.456;2024-03-17T10:52:05;9.80;;;3.85;;
22715;SDS011;11525;51.152;4.456;2024-03-17T10:54:32;7.05;;;3.80;;
22715;SDS011;11525;51.152;4.456;2024-03-17T10:59:52;8.80;;;3.58;;
22715;SDS011;11525;51.152;4.456;2024-03-17T11:04:51;7.35;;;4.10;;
22715;SDS011;11525;51.152;4.456;2024-03-17T11:07:18;9.52;;;4.25;;
22715;SDS011;11525;51.152;4.456;2024-03-17T11:09:45;6.20;;;3.80;;
22715;SDS011;11525;51.152;4.456;2024-03-17T11:17:45;8.75;;;4.75;;
22715;SDS011;11525;51.152;4.456;2024-03-17T11:20:26;7.68;;;4.32;;
22715;SDS011;11525;51.152;4.456;2024-03-17T11:22:56;8.88;;;4.63;;
22715;SDS011;11525;51.152;4.456;2024-03-17T11:27:55;8.05;;;4.05;;
22715;SDS011;11525;51.152;4.456;2024-03-17T11:30:41;8.32;;;4.15;;
22715;SDS011;11525;51.152;4.456;2024-03-17T11:49:21;8.60;;;3.78;;
22715;SDS011;11525;51.152;4.456;2024-03-17T11:51:49;6.45;;;3.35;;
22715;SDS011;11525;51.152;4.456;2024-03-17T11:54:32;6.28;;;3.50;;
22715;SDS011;11525;51.152;4.456;2024-03-17T11:57:05;4.88;;;3.47;;
22715;SDS011;11525;51.152;4.456;2024-03-17T11:59:35;8.40;;;3.35;;
22715;SDS011;11525;51.152;4.456;2024-03-17T12:02:19;8.85;;;3.97;;
22715;SDS011;11525;51.152;4.456;2024-03-17T12:04:47;6.47;;;3.30;;
22715;SDS011;11525;51.152;4.456;2024-03-17T12:07:14;8.88;;;4.25;;
22715;SDS011;11525;51.152;4.456;2024-03-17T12:09:44;5.63;;;3.38;;
22715;SDS011;11525;51.152;4.456;2024-03-17T12:12:18;7.05;;;3.70;;
22715;SDS011;11525;51.152;4.456;2024-03-17T12:14:48;7.13;;;3.10;;
22715;SDS011;11525;51.152;4.456;2024-03-17T12:17:15;6.75;;;3.50;;
22715;SDS011;11525;51.152;4.456;2024-03-17T12:19:49;5.60;;;3.28;;
22715;SDS011;11525;51.152;4.456;2024-03-17T12:22:19;7.63;;;3.58;;
22715;SDS011;11525;51.152;4.456;2024-03-17T12:24:53;7.30;;;3.75;;
22715;SDS011;11525;51.152;4.456;2024-03-17T12:27:23;7.15;;;3.35;;
22715;SDS011;11525;51.152;4.456;2024-03-17T12:29:51;4.82;;;3.70;;
22715;SDS011;11525;51.152;4.456;2024-03-17T12:32:19;8.07;;;3.78;;
22715;SDS011;11525;51.152;4.456;2024-03-17T12:34:47;8.30;;;3.80;;
22715;SDS011;11525;51.152;4.456;2024-03-17T12:37:16;8.48;;;3.60;;
22715;SDS011;11525;51.152;4.456;2024-03-17T12:39:43;7.82;;;3.50;;
22715;SDS011;11525;51.152;4.456;2024-03-17T12:42:16;6.15;;;3.25;;
22715;SDS011;11525;51.152;4.456;2024-03-17T12:44:51;8.10;;;3.35;;
22715;SDS011;11525;51.152;4.456;2024-03-17T12:47:18;7.13;;;3.25;;
22715;SDS011;11525;51.152;4.456;2024-03-17T12:49:48;6.35;;;3.25;;
22715;SDS011;11525;51.152;4.456;2024-03-17T12:52:19;6.03;;;3.08;;
22715;SDS011;11525;51.152;4.456;2024-03-17T12:54:55;4.85;;;2.60;;
22715;SDS011;11525;51.152;4.456;2024-03-17T12:57:48;7.95;;;3.13;;
22715;SDS011;11525;51.152;4.456;2024-03-17T13:00:36;11.68;;;3.55;;
22715;SDS011;11525;51.152;4.456;2024-03-17T13:03:03;9.98;;;3.13;;
22715;SDS011;11525;51.152;4.456;2024-03-17T13:05:33;6.90;;;3.47;;
22715;SDS011;11525;51.152;4.456;2024-03-17T13:07:59;6.05;;;3.40;;
22715;SDS011;11525;51.152;4.456;2024-03-17T13:10:26;9.05;;;3.60;;
22715;SDS011;11525;51.152;4.456;2024-03-17T13:12:59;6.40;;;3.10;;
22715;SDS011;11525;51.152;4.456;2024-03-17T13:15:26;5.43;;;3.15;;
22715;SDS011;11525;51.152;4.456;2024-03-17T13:17:53;8.70;;;2.88;;
22715;SDS011;11525;51.152;4.456;2024-03-17T13:20:19;5.55;;;3.00;;
22715;SDS011;11525;51.152;4.456;2024-03-17T13:22:45;8.35;;;2.88;;
22715;SDS011;11525;51.152;4.456;2024-03-17T13:25:14;7.90;;;3.25;;
22715;SDS011;11525;51.152;4.456;2024-03-17T13:27:42;9.90;;;2.97;;
22715;SDS011;11525;51.152;4.456;2024-03-17T13:30:09;7.95;;;2.85;;
22715;SDS011;11525;51.152;4.456;2024-03-17T13:32:35;5.63;;;2.60;;
22715;SDS011;11525;51.152;4.456;2024-03-17T13:35:01;5.45;;;2.90;;
22715;SDS011;11525;51.152;4.456;2024-03-17T13:37:27;8.80;;;2.80;;
22715;SDS011;11525;51.152;4.456;2024-03-17T13:39:53;6.13;;;2.70;;
22715;SDS011;11525;51.152;4.456;2024-03-17T13:42:19;6.85;;;2.63;;
22715;SDS011;11525;51.152;4.456;2024-03-17T13:44:45;8.05;;;2.67;;
22715;SDS011;11525;51.152;4.456;2024-03-17T13:47:11;4.07;;;2.28;;
22715;SDS011;11525;51.152;4.456;2024-03-17T13:49:39;5.20;;;2.90;;
22715;SDS011;11525;51.152;4.456;2024-03-17T13:52:04;3.38;;;2.60;;
22715;SDS011;11525;51.152;4.456;2024-03-17T13:54:30;6.35;;;2.70;;
22715;SDS011;11525;51.152;4.456;2024-03-17T13:56:57;6.07;;;3.30;;
22715;SDS011;11525;51.152;4.456;2024-03-17T13:59:23;7.20;;;3.50;;
22715;SDS011;11525;51.152;4.456;2024-03-17T14:01:52;6.63;;;3.28;;
22715;SDS011;11525;51.152;4.456;2024-03-17T14:04:17;4.65;;;2.45;;
22715;SDS011;11525;51.152;4.456;2024-03-17T14:06:44;5.88;;;2.90;;
22715;SDS011;11525;51.152;4.456;2024-03-17T14:09:10;5.85;;;2.78;;
22715;SDS011;11525;51.152;4.456;2024-03-17T14:11:45;7.72;;;3.10;;
22715;SDS011;11525;51.152;4.456;2024-03-17T14:14:11;6.90;;;3.00;;
22715;SDS011;11525;51.152;4.456;2024-03-17T14:16:37;5.90;;;3.35;;
22715;SDS011;11525;51.152;4.456;2024-03-17T14:19:03;6.60;;;3.10;;
22715;SDS011;11525;51.152;4.456;2024-03-17T14:21:28;5.60;;;2.95;;
22715;SDS011;11525;51.152;4.456;2024-03-17T14:23:54;5.72;;;3.17;;
22715;SDS011;11525;51.152;4.456;2024-03-17T14:26:21;6.47;;;2.97;;
22715;SDS011;11525;51.152;4.456;2024-03-17T14:28:47;5.90;;;3.20;;
22715;SDS011;11525;51.152;4.456;2024-03-17T14:31:15;8.65;;;2.65;;
22715;SDS011;11525;51.152;4.456;2024-03-17T14:33:42;5.85;;;2.83;;
22715;SDS011;11525;51.152;4.456;2024-03-17T14:36:08;4.95;;;3.05;;
22715;SDS011;11525;51.152;4.456;2024-03-17T14:38:34;6.57;;;2.95;;
22715;SDS011;11525;51.152;4.456;2024-03-17T14:41:00;6.43;;;3.00;;
22715;SDS011;11525;51.152;4.456;2024-03-17T14:43:26;9.55;;;3.22;;
22715;SDS011;11525;51.152;4.456;2024-03-17T14:45:52;9.00;;;3.35;;
22715;SDS011;11525;51.152;4.456;2024-03-17T14:48:18;4.90;;;2.65;;
22715;SDS011;11525;51.152;4.456;2024-03-17T14:50:44;4.85;;;2.85;;
22715;SDS011;11525;51.152;4.456;2024-03-17T14:53:10;7.15;;;3.10;;
22715;SDS011;11525;51.152;4.456;2024-03-17T14:55:35;6.78;;;3.30;;
22715;SDS011;11525;51.152;4.456;2024-03-17T14:58:01;8.93;;;3.50;;
22715;SDS011;11525;51.152;4.456;2024-03-17T15:00:27;9.55;;;3.50;;
22715;SDS011;11525;51.152;4.456;2024-03-17T15:02:55;10.45;;;3.53;;
22715;SDS011;11525;51.152;4.456;2024-03-17T15:05:21;8.50;;;3.13;;
22715;SDS011;11525;51.152;4.456;2024-03-17T15:07:48;6.65;;;3.20;;
22715;SDS011;11525;51.152;4.456;2024-03-17T15:10:15;10.00;;;3.53;;
22715;SDS011;11525;51.152;4.456;2024-03-17T15:12:45;8.10;;;3.08;;
22715;SDS011;11525;51.152;4.456;2024-03-17T15:15:14;7.70;;;3.08;;
22715;SDS011;11525;51.152;4.456;2024-03-17T15:17:40;7.38;;;2.60;;
22715;SDS011;11525;51.152;4.456;2024-03-17T15:20:09;8.10;;;2.90;;
22715;SDS011;11525;51.152;4.456;2024-03-17T15:22:43;8.02;;;3.25;;
22715;SDS011;11525;51.152;4.456;2024-03-17T15:25:10;7.05;;;3.33;;